Time;durP1;ratioP1;P1;durP2;ratioP2;P2;SDS_P1;SDS_P2;PMS_P1;PMS_P2;Temp;Humidity;BMP_temperature;BMP_pressure;BME280_temperature;BME280_humidity;BME280_pressure;Samples;Min_cycle;Max_cycle;Signal;HPM_P1;HPM_P2
2022/02/06 00:01:12;;;;;;;8.73;4.73;;;;;;;-2.02;100.00;99285.72;5031085;28;20140;-60
2022/02/06 00:03:39;;;;;;;10.67;5.43;;;;;;;-1.79;100.00;99276.63;5029340;28;20037;-58
2022/02/06 00:06:05;;;;;;;7.30;4.90;;;;;;;-1.78;100.00;99267.44;5029166;28;20041;-60
2022/02/06 00:08:30;;;;;;;8.27;4.50;;;;;;;-1.83;100.00;99264.72;5030143;28;20483;-57
2022/02/06 00:10:56;;;;;;;6.00;4.13;;;;;;;-1.87;100.00;99265.41;5029404;28;20037;-60
2022/02/06 00:13:21;;;;;;;7.93;3.57;;;;;;;-1.87;100.00;99263.72;5029169;28;20044;-59
2022/02/06 00:15:47;;;;;;;9.60;3.70;;;;;;;-1.83;100.00;99262.22;5031864;28;20025;-59
2022/02/06 00:18:13;;;;;;;4.77;3.93;;;;;;;-1.92;100.00;99265.22;5030381;28;20724;-59
2022/02/06 00:20:48;;;;;;;7.93;3.80;;;;;;;-1.94;100.00;99256.75;5027677;28;20033;-59
2022/02/06 00:23:16;;;;;;;9.53;3.80;;;;;;;-1.97;100.00;99258.28;5028136;28;20036;-59
2022/02/06 00:26:00;;;;;;;8.50;3.97;;;;;;;-2.00;100.00;99245.63;5031297;28;20138;-59
2022/02/06 00:28:39;;;;;;;5.40;3.77;;;;;;;-2.07;100.00;99247.00;5035804;28;20466;-59
2022/02/06 00:31:20;;;;;;;7.70;3.47;;;;;;;-2.16;100.00;99241.59;5027660;28;20033;-59
2022/02/06 00:41:22;;;;;;;9.90;4.07;;;;;;;-1.86;100.00;99232.78;5030366;28;20041;-59
2022/02/06 00:43:49;;;;;;;7.30;4.03;;;;;;;-1.93;100.00;99233.34;5022227;28;20148;-59
2022/02/06 00:46:17;;;;;;;8.17;3.80;;;;;;;-1.83;100.00;99241.25;5029529;28;20037;-59
2022/02/06 00:48:49;;;;;;;8.87;3.37;;;;;;;-1.77;100.00;99228.91;5030029;28;20471;-60
2022/02/06 00:54:00;;;;;;;8.07;3.90;;;;;;;-1.76;100.00;99240.69;4988981;28;20163;-59
2022/02/06 00:56:25;;;;;;;3.93;2.83;;;;;;;-1.88;100.00;99231.88;5032752;28;20041;-60
2022/02/06 00:58:51;;;;;;;4.80;3.30;;;;;;;-1.89;100.00;99230.16;5029192;28;20059;-59
2022/02/06 01:01:16;;;;;;;4.47;2.73;;;;;;;-1.94;100.00;99228.25;5031622;28;20033;-60
2022/02/06 01:03:42;;;;;;;3.73;3.00;;;;;;;-1.89;100.00;99229.31;5032226;28;20029;-60
2022/02/06 01:06:07;;;;;;;4.67;3.30;;;;;;;-1.96;100.00;99225.72;5031431;28;20238;-57
2022/02/06 01:08:33;;;;;;;6.90;3.60;;;;;;;-2.10;100.00;99213.38;5027375;28;20025;-58
2022/02/06 01:11:01;;;;;;;5.87;3.20;;;;;;;-2.24;100.00;99214.47;5027424;28;20648;-59
2022/02/06 01:13:34;;;;;;;10.17;4.20;;;;;;;-2.13;100.00;99216.63;5028438;28;20445;-59
2022/02/06 01:16:11;;;;;;;5.73;2.80;;;;;;;-2.21;100.00;99202.91;5030570;28;20025;-57
2022/02/06 01:18:42;;;;;;;6.83;3.43;;;;;;;-2.26;100.00;99209.41;5028659;28;20584;-59
2022/02/06 01:21:20;;;;;;;4.13;3.03;;;;;;;-2.29;100.00;99203.41;5031139;28;20468;-60
2022/02/06 01:23:55;;;;;;;5.03;2.83;;;;;;;-2.34;100.00;99199.06;5030731;28;20039;-59
2022/02/06 01:26:38;;;;;;;3.73;2.57;;;;;;;-2.33;100.00;99199.88;5030828;28;20036;-60
2022/02/06 01:31:56;;;;;;;4.17;2.43;;;;;;;-2.46;100.00;99175.13;4995096;28;20053;-59
2022/02/06 01:34:45;;;;;;;6.67;2.57;;;;;;;-2.45;100.00;99174.28;5030523;28;20387;-60
2022/02/06 01:42:15;;;;;;;3.30;2.67;;;;;;;-2.32;100.00;99162.31;5031882;28;20048;-60
2022/02/06 02:01:42;;;;;;;3.27;2.33;;;;;;;-2.07;100.00;99116.41;5031017;28;20040;-61
2022/02/06 02:03:49;;;;;;;3.27;2.07;;;;;;;-2.03;100.00;99112.34;5023090;28;20080;-59
2022/02/06 02:11:50;;;;;;;3.37;2.00;;;;;;;-1.95;100.00;99108.47;5029818;28;20044;-59
2022/02/06 02:43:08;;;;;;;3.97;2.10;;;;;;;-2.06;100.00;99093.00;5029115;28;20079;-59
2022/02/06 02:48:17;;;;;;;2.27;1.43;;;;;;;-2.25;100.00;99087.25;5033534;28;20143;-60
2022/02/06 02:50:49;;;;;;;6.77;1.87;;;;;;;-2.33;100.00;99089.41;5031804;28;20343;-60
2022/02/06 02:53:28;;;;;;;4.20;1.97;;;;;;;-2.34;100.00;99080.22;5030174;28;20326;-58
2022/02/06 02:56:05;;;;;;;1.77;1.67;;;;;;;-2.35;100.00;99081.00;5029617;28;20028;-60
2022/02/06 03:01:31;;;;;;;6.63;2.97;;;;;;;-2.28;100.00;99084.59;5031972;28;20060;-60
2022/02/06 03:03:57;;;;;;;3.97;2.47;;;;;;;-2.14;100.00;99070.91;5028773;28;20100;-60
2022/02/06 03:06:22;;;;;;;4.43;2.73;;;;;;;-2.26;100.00;99063.78;5030982;28;20033;-59
2022/02/06 03:08:49;;;;;;;4.67;2.10;;;;;;;-2.12;100.00;99076.88;5030501;28;20428;-60
2022/02/06 03:11:15;;;;;;;4.73;2.90;;;;;;;-2.12;100.00;99074.34;5027727;28;20212;-60
2022/02/06 03:13:49;;;;;;;3.30;2.67;;;;;;;-2.12;100.00;99069.31;5031040;28;20033;-59
2022/02/06 03:16:20;;;;;;;3.83;2.17;;;;;;;-2.23;100.00;99068.03;5033962;28;20395;-59
2022/02/06 03:19:20;;;;;;;2.27;1.80;;;;;;;-2.10;100.00;99071.09;5032039;28;20052;-58
2022/02/06 03:21:39;;;;;;;2.87;1.87;;;;;;;-2.24;100.00;99068.84;5025268;28;20511;-59
2022/02/06 03:24:18;;;;;;;3.07;2.00;;;;;;;-2.34;100.00;99068.50;5032071;28;20033;-60
2022/02/06 03:26:53;;;;;;;1.60;1.50;;;;;;;-2.43;100.00;99062.28;5032451;28;20411;-59
2022/02/06 03:29:20;;;;;;;2.88;1.65;;;;;;;-2.49;100.00;99074.56;5030398;28;20131;-59
2022/02/06 03:31:47;;;;;;;2.97;1.67;;;;;;;-2.41;100.00;99063.16;5031358;28;20529;-59
2022/02/06 03:34:13;;;;;;;2.60;1.60;;;;;;;-2.48;100.00;99069.63;5028571;28;20647;-60
2022/02/06 03:36:39;;;;;;;2.33;1.90;;;;;;;-2.53;100.00;99066.06;5013194;28;20104;-60
2022/02/06 03:39:06;;;;;;;2.23;1.63;;;;;;;-2.52;100.00;99062.78;5029632;28;20667;-60
2022/02/06 03:41:43;;;;;;;3.00;1.57;;;;;;;-2.60;100.00;99063.25;5029498;28;20029;-60
2022/02/06 03:44:20;;;;;;;5.77;1.90;;;;;;;-2.66;100.00;99055.47;5033052;28;20025;-60
2022/02/06 03:46:57;;;;;;;3.57;1.97;;;;;;;-2.62;100.00;99059.81;5033623;28;20036;-60
2022/02/06 03:49:31;;;;;;;2.67;1.87;;;;;;;-2.72;100.00;99046.09;5028993;28;20486;-58
2022/02/06 03:51:56;;;;;;;3.77;1.90;;;;;;;-2.72;100.00;99048.59;5030271;28;20048;-58
2022/02/06 03:54:23;;;;;;;4.70;2.37;;;;;;;-2.60;100.00;99055.75;5030010;28;20033;-60
2022/02/06 03:56:52;;;;;;;3.17;2.13;;;;;;;-2.62;100.00;99044.78;5033151;28;20029;-58
2022/02/06 03:59:17;;;;;;;4.33;2.67;;;;;;;-2.51;100.00;99041.03;5029217;28;20402;-59
2022/02/06 04:01:42;;;;;;;3.17;2.07;;;;;;;-2.52;100.00;99041.84;5030351;28;20036;-60
2022/02/06 04:04:08;;;;;;;7.80;2.10;;;;;;;-2.54;100.00;99028.34;5031725;28;20033;-59
2022/02/06 04:06:33;;;;;;;3.57;2.30;;;;;;;-2.60;100.00;99025.63;5030766;28;20078;-59
2022/02/06 04:08:59;;;;;;;3.97;1.80;;;;;;;-2.53;100.00;99025.91;5026658;28;20076;-59
2022/02/06 04:11:44;;;;;;;3.17;1.77;;;;;;;-2.45;100.00;99012.00;5030174;28;20033;-59
2022/02/06 04:14:21;;;;;;;4.18;1.50;;;;;;;-2.46;100.00;99012.78;5029006;28;20537;-60
2022/02/06 04:16:53;;;;;;;3.30;1.67;;;;;;;-2.45;100.00;99009.50;5028392;28;20377;-59
2022/02/06 04:19:25;;;;;;;4.37;1.80;;;;;;;-2.40;100.00;98999.63;5027440;28;20026;-59
2022/02/06 04:21:52;;;;;;;4.90;1.83;;;;;;;-2.44;100.00;98995.28;5030234;28;20056;-58
2022/02/06 04:24:18;;;;;;;2.70;1.40;;;;;;;-2.49;100.00;98992.59;5028215;28;20349;-57
2022/02/06 04:26:43;;;;;;;1.93;1.63;;;;;;;-2.52;100.00;98990.00;5027078;28;20036;-58
2022/02/06 04:29:09;;;;;;;2.73;1.53;;;;;;;-2.39;100.00;98993.81;5026668;28;20033;-59
2022/02/06 04:31:37;;;;;;;2.63;1.53;;;;;;;-2.42;100.00;98986.19;5028785;28;20038;-58
2022/02/06 04:34:03;;;;;;;2.53;1.30;;;;;;;-2.48;100.00;98984.28;5030546;28;20025;-59
2022/02/06 04:36:35;;;;;;;1.87;1.57;;;;;;;-2.49;100.00;98984.22;5029051;28;20475;-60
2022/02/06 04:39:27;;;;;;;2.00;1.60;;;;;;;-2.53;100.00;98977.38;5028585;28;20454;-57
2022/02/06 04:42:15;;;;;;;3.87;1.80;;;;;;;-2.53;100.00;98979.88;5029090;28;20501;-59
2022/02/06 05:17:01;;;;;;;3.33;2.03;;;;;;;-2.39;100.00;98968.72;5006893;28;20431;-58
2022/02/06 05:25:26;;;;;;;3.97;2.57;;;;;;;-2.15;100.00;98964.56;4989358;28;20387;-58
2022/02/06 05:30:26;;;;;;;2.90;1.70;;;;;;;-2.11;100.00;98952.97;5011332;28;20065;-58
2022/02/06 05:35:20;;;;;;;1.93;1.50;;;;;;;-1.91;100.00;98947.03;5007866;28;20048;-59
2022/02/06 05:37:45;;;;;;;2.60;1.43;;;;;;;-1.96;100.00;98936.81;5010203;28;20281;-60
2022/02/06 05:40:11;;;;;;;1.73;1.40;;;;;;;-1.97;100.00;98930.09;5010207;28;20590;-60
2022/02/06 05:42:36;;;;;;;2.80;1.80;;;;;;;-1.98;100.00;98935.03;5006092;28;20503;-58
2022/02/06 05:45:02;;;;;;;3.40;1.33;;;;;;;-1.96;100.00;98939.34;5005117;28;20052;-60
2022/02/06 05:47:27;;;;;;;2.43;1.77;;;;;;;-1.93;100.00;98936.91;5010886;28;20124;-59
2022/02/06 05:49:54;;;;;;;2.50;1.50;;;;;;;-1.93;100.00;98936.91;5010279;28;20037;-58
2022/02/06 05:52:21;;;;;;;1.97;1.47;;;;;;;-1.99;100.00;98930.81;5006337;28;20053;-60
2022/02/06 05:54:47;;;;;;;5.70;1.73;;;;;;;-1.96;100.00;98935.97;5007929;28;20029;-59
2022/02/06 05:57:13;;;;;;;4.37;1.50;;;;;;;-1.91;100.00;98927.75;5009602;28;20045;-60
2022/02/06 05:59:39;;;;;;;2.63;1.60;;;;;;;-1.95;100.00;98932.63;5011433;28;20033;-58
2022/02/06 06:02:04;;;;;;;1.53;1.27;;;;;;;-1.84;100.00;98921.31;5006916;28;20060;-59
2022/02/06 06:04:30;;;;;;;3.77;1.60;;;;;;;-1.83;100.00;98929.69;5006841;28;20033;-59
2022/02/06 06:06:55;;;;;;;3.03;1.40;;;;;;;-1.78;100.00;98928.22;5010110;28;20151;-60
2022/02/06 06:09:21;;;;;;;1.50;1.40;;;;;;;-1.75;100.00;98920.78;5009680;28;20381;-60
2022/02/06 06:11:47;;;;;;;1.63;1.50;;;;;;;-1.68;100.00;98917.66;5005645;28;20188;-59
2022/02/06 06:14:12;;;;;;;2.97;1.67;;;;;;;-1.70;100.00;98925.16;5007011;28;20379;-61
2022/02/06 06:16:37;;;;;;;2.80;1.83;;;;;;;-1.58;100.00;98923.03;5014489;28;20155;-60
2022/02/06 06:19:04;;;;;;;3.33;1.80;;;;;;;-1.63;100.00;98896.03;5013765;28;20464;-58
2022/02/06 06:21:35;;;;;;;2.73;1.60;;;;;;;-1.59;100.00;98908.75;5009140;28;20033;-60
2022/02/06 06:24:01;;;;;;;8.37;1.90;;;;;;;-1.56;100.00;98905.47;5012086;28;20230;-58
2022/02/06 06:26:29;;;;;;;2.30;2.10;;;;;;;-1.48;100.00;98906.59;5016543;28;20593;-60
2022/02/06 06:28:55;;;;;;;4.37;1.87;;;;;;;-1.56;100.00;98908.00;5015236;28;20030;-59
2022/02/06 06:31:21;;;;;;;2.77;1.80;;;;;;;-1.43;100.00;98912.63;5013163;28;20765;-59
2022/02/06 06:33:46;;;;;;;2.80;1.40;;;;;;;-1.38;100.00;98911.13;5013954;28;20034;-59
2022/02/06 06:36:11;;;;;;;5.53;1.93;;;;;;;-1.33;100.00;98914.63;5013767;28;20100;-57
2022/02/06 06:38:38;;;;;;;2.20;1.60;;;;;;;-1.44;100.00;98904.22;5012105;28;20029;-57
2022/02/06 06:41:04;;;;;;;5.77;2.10;;;;;;;-1.27;100.00;98902.25;5013566;28;20037;-59
2022/02/06 06:43:30;;;;;;;1.93;1.60;;;;;;;-1.17;100.00;98919.34;5013074;28;20080;-57
2022/02/06 06:45:57;;;;;;;3.33;2.20;;;;;;;-1.15;100.00;98902.66;5013926;28;20437;-59
2022/02/06 06:48:22;;;;;;;4.00;2.47;;;;;;;-1.13;100.00;98898.50;5025589;28;20060;-59
2022/02/06 06:50:48;;;;;;;6.10;3.50;;;;;;;-1.04;100.00;98906.34;5033015;28;20029;-59
2022/02/06 06:53:14;;;;;;;14.20;7.33;;;;;;;-1.01;100.00;98905.56;5033702;28;20112;-58
2022/02/06 06:55:43;;;;;;;11.20;6.40;;;;;;;-0.98;100.00;98908.22;5033210;28;20100;-59
2022/02/06 06:58:25;;;;;;;12.20;3.97;;;;;;;-0.86;100.00;98903.53;5030558;28;20041;-59
2022/02/06 07:03:23;;;;;;;6.50;2.13;;;;;;;-0.79;100.00;98887.81;5036880;28;20071;-61
2022/02/06 07:05:49;;;;;;;4.93;2.70;;;;;;;-0.73;100.00;98892.19;5034212;28;20024;-60
2022/02/06 07:08:16;;;;;;;4.23;2.20;;;;;;;-0.77;100.00;98887.88;5030384;28;20334;-56
2022/02/06 07:10:42;;;;;;;5.93;3.37;;;;;;;-0.76;100.00;98882.84;5030660;28;20025;-60
2022/02/06 07:13:07;;;;;;;8.77;4.17;;;;;;;-0.72;100.00;98881.31;5032873;28;20408;-60
2022/02/06 07:15:33;;;;;;;6.13;4.33;;;;;;;-0.67;100.00;98878.09;5033548;28;20033;-60
2022/02/06 07:17:58;;;;;;;7.63;3.17;;;;;;;-0.56;100.00;98869.22;5031470;28;20033;-60
2022/02/06 07:20:24;;;;;;;5.07;3.13;;;;;;;-0.49;100.00;98867.69;5031012;28;20548;-55
2022/02/06 07:22:50;;;;;;;5.77;2.93;;;;;;;-0.42;100.00;98858.66;5032778;28;20593;-60
2022/02/06 07:25:15;;;;;;;5.60;3.20;;;;;;;-0.43;100.00;98860.34;5034026;28;20120;-61
2022/02/06 07:27:45;;;;;;;7.03;3.40;;;;;;;-0.45;100.00;98864.47;5030698;28;20025;-61
2022/02/06 07:30:12;;;;;;;7.93;4.37;;;;;;;-0.31;100.00;98867.38;5030264;28;20059;-59
2022/02/06 07:32:38;;;;;;;9.57;4.87;;;;;;;-0.19;100.00;98870.22;5032511;28;20045;-59
2022/02/06 07:35:09;;;;;;;5.50;3.27;;;;;;;-0.14;100.00;98871.19;5031876;28;20036;-60
2022/02/06 07:37:55;;;;;;;7.63;3.93;;;;;;;-0.11;100.00;98863.72;5032484;28;20542;-61
2022/02/06 07:40:20;;;;;;;9.80;5.05;;;;;;;0.04;100.00;98858.22;5033077;28;20029;-58
2022/02/06 07:42:46;;;;;;;7.33;4.83;;;;;;;0.06;100.00;98861.63;5032764;28;20044;-58
2022/02/06 07:45:12;;;;;;;9.30;4.17;;;;;;;0.11;100.00;98855.06;5031621;28;20032;-60
2022/02/06 07:47:41;;;;;;;10.93;5.00;;;;;;;0.18;100.00;98857.75;5030015;28;20272;-60
2022/02/06 07:50:07;;;;;;;12.53;7.07;;;;;;;0.20;100.00;98865.38;5031513;28;20033;-59
2022/02/06 07:52:32;;;;;;;11.03;6.30;;;;;;;0.41;100.00;98865.91;5031053;28;20479;-59
2022/02/06 07:54:58;;;;;;;16.37;4.77;;;;;;;0.35;100.00;98860.69;5026713;28;20483;-56
2022/02/06 07:57:24;;;;;;;9.67;4.10;;;;;;;0.40;100.00;98862.53;5029638;28;20036;-59
2022/02/06 07:59:51;;;;;;;7.53;3.50;;;;;;;0.54;100.00;98872.09;5030270;28;20029;-59
2022/02/06 08:02:17;;;;;;;8.03;4.00;;;;;;;0.60;100.00;98865.53;5031434;28;20098;-58
2022/02/06 08:04:46;;;;;;;12.80;4.90;;;;;;;0.70;100.00;98866.59;5029647;28;20438;-58
2022/02/06 08:07:12;;;;;;;10.10;5.17;;;;;;;0.68;100.00;98866.56;5030011;28;20464;-58
2022/02/06 08:12:40;;;;;;;8.73;5.30;;;;;;;0.84;100.00;98868.66;5021254;28;20033;-60
2022/02/06 08:15:06;;;;;;;17.30;4.67;;;;;;;0.85;100.00;98862.75;5030916;28;20036;-60
2022/02/06 08:17:36;;;;;;;11.47;4.33;;;;;;;0.92;100.00;98871.34;5030362;28;20044;-61
2022/02/06 08:20:09;;;;;;;12.27;4.30;;;;;;;0.90;100.00;98860.34;5032223;28;20045;-59
2022/02/06 08:22:35;;;;;;;7.60;5.43;;;;;;;0.99;100.00;98867.25;5033336;28;20053;-58
2022/02/06 08:25:00;;;;;;;9.13;4.70;;;;;;;1.09;100.00;98862.47;5030293;28;20109;-59
2022/02/06 08:27:27;;;;;;;11.90;4.57;;;;;;;1.17;100.00;98866.00;5027600;28;20514;-60
2022/02/06 08:29:53;;;;;;;10.93;4.37;;;;;;;1.25;100.00;98853.53;5034186;28;20069;-59
2022/02/06 08:32:22;;;;;;;7.43;4.63;;;;;;;1.24;100.00;98849.31;5029154;28;20401;-58
2022/02/06 08:34:48;;;;;;;8.57;4.43;;;;;;;1.32;100.00;98855.38;5028479;28;20072;-58
2022/02/06 08:37:14;;;;;;;13.33;5.17;;;;;;;1.33;100.00;98855.41;5029981;28;20017;-59
2022/02/06 08:39:40;;;;;;;10.30;6.07;;;;;;;1.37;100.00;98851.28;5031025;28;20148;-61
2022/02/06 08:42:09;;;;;;;7.03;4.63;;;;;;;1.39;100.00;98849.66;5026596;28;20029;-59
2022/02/06 08:44:42;;;;;;;15.90;6.43;;;;;;;1.53;100.00;98852.47;5029688;28;20028;-59
2022/02/06 08:47:10;;;;;;;11.33;6.00;;;;;;;1.50;100.00;98857.44;5031526;28;20088;-59
2022/02/06 08:49:37;;;;;;;12.20;5.47;;;;;;;1.62;100.00;98858.53;5030009;28;20496;-58
2022/02/06 08:52:03;;;;;;;14.13;7.33;;;;;;;1.71;100.00;98848.59;5030089;28;20064;-59
2022/02/06 08:54:31;;;;;;;11.67;5.97;;;;;;;1.83;100.00;98843.78;5029952;28;20595;-58
2022/02/06 08:57:02;;;;;;;86.00;39.27;;;;;;;1.85;100.00;98843.81;5031688;28;20038;-58
2022/02/06 08:59:32;;;;;;;49.90;26.50;;;;;;;1.89;100.00;98839.66;5030833;28;20468;-57
2022/02/06 09:01:59;;;;;;;15.33;8.33;;;;;;;1.96;100.00;98839.78;5009237;28;20032;-57
2022/02/06 09:04:26;;;;;;;19.80;6.87;;;;;;;1.98;100.00;98837.31;5025988;28;20036;-56
2022/02/06 09:06:54;;;;;;;10.23;5.93;;;;;;;1.93;100.00;98826.25;5029457;28;20060;-58
2022/02/06 09:09:19;;;;;;;12.50;6.90;;;;;;;1.91;100.00;98823.69;5027959;28;20060;-58
2022/02/06 09:11:45;;;;;;;13.70;7.80;;;;;;;1.79;100.00;98826.84;5025887;28;20472;-58
2022/02/06 09:14:13;;;;;;;25.40;13.17;;;;;;;1.80;100.00;98825.19;5026533;28;20028;-59
2022/02/06 09:16:39;;;;;;;24.00;13.07;;;;;;;1.74;100.00;98820.03;5030089;28;20030;-58
2022/02/06 09:19:06;;;;;;;25.63;14.60;;;;;;;1.74;100.00;98820.03;5029047;28;20098;-57
2022/02/06 09:21:32;;;;;;;33.60;15.57;;;;;;;1.67;100.00;98811.47;5025575;28;20029;-58
2022/02/06 09:23:57;;;;;;;28.40;13.47;;;;;;;1.67;100.00;98808.09;5030110;28;20029;-59
2022/02/06 09:26:23;;;;;;;21.93;11.40;;;;;;;1.66;100.00;98809.75;5030802;28;20441;-58
2022/02/06 09:28:48;;;;;;;17.80;10.50;;;;;;;1.58;100.00;98807.91;5027451;28;20029;-58
2022/02/06 09:31:14;;;;;;;17.77;9.10;;;;;;;1.50;100.00;98802.72;5026214;28;20025;-59
2022/02/06 09:36:05;;;;;;;12.97;8.33;;;;;;;1.49;100.00;98805.19;5029662;28;20098;-56
2022/02/06 09:38:31;;;;;;;12.57;7.60;;;;;;;1.34;100.00;98788.09;5027606;28;20415;-58
2022/02/06 09:40:56;;;;;;;14.67;7.13;;;;;;;1.39;100.00;98791.56;5029479;28;20021;-58
2022/02/06 09:43:22;;;;;;;13.20;7.50;;;;;;;1.40;100.00;98784.84;5032539;28;20051;-58
2022/02/06 09:45:49;;;;;;;12.13;7.13;;;;;;;1.42;100.00;98781.50;5035188;28;20045;-58
2022/02/06 09:48:15;;;;;;;11.60;7.17;;;;;;;1.39;100.00;98781.44;5029898;28;20127;-57
2022/02/06 09:50:45;;;;;;;18.93;10.13;;;;;;;1.50;100.00;98772.41;5027429;28;20194;-59
2022/02/06 09:53:11;;;;;;;19.50;10.40;;;;;;;1.62;100.00;98775.16;5032059;28;20063;-57
2022/02/06 09:55:38;;;;;;;17.93;10.73;;;;;;;1.74;100.00;98769.50;5037704;28;20064;-59
2022/02/06 10:00:41;;;;;;;12.82;8.68;;;;;;;1.84;100.00;98741.88;5033233;28;20557;-59
2022/02/06 10:03:11;;;;;;;16.90;9.97;;;;;;;1.93;100.00;98726.00;5031093;28;20036;-60
2022/02/06 10:05:39;;;;;;;19.83;10.10;;;;;;;2.13;100.00;98738.94;5031971;28;20040;-59
2022/02/06 10:08:20;;;;;;;20.97;11.60;;;;;;;2.20;100.00;98718.00;5030216;28;20561;-59
2022/02/06 10:10:56;;;;;;;21.30;11.67;;;;;;;2.23;100.00;98707.94;5030260;28;20041;-58
2022/02/06 10:13:22;;;;;;;20.70;11.77;;;;;;;2.34;100.00;98696.28;5033062;28;20059;-59
2022/02/06 10:15:47;;;;;;;20.23;10.87;;;;;;;2.46;100.00;98698.16;5033660;28;20025;-57
2022/02/06 10:18:12;;;;;;;17.33;10.00;;;;;;;2.53;100.00;98700.78;5030375;28;20200;-60
2022/02/06 10:20:44;;;;;;;20.43;10.80;;;;;;;2.62;100.00;98690.78;5033048;28;20503;-57
2022/02/06 10:23:37;;;;;;;22.37;11.20;;;;;;;2.73;100.00;98671.53;5035018;28;20033;-58
2022/02/06 10:26:18;;;;;;;21.93;11.23;;;;;;;2.90;100.00;98666.66;5031803;28;20394;-60
2022/02/06 10:28:47;;;;;;;19.07;11.47;;;;;;;3.17;100.00;98656.84;5031188;28;20029;-58
2022/02/06 10:31:16;;;;;;;19.83;10.83;;;;;;;3.50;100.00;98637.75;5014556;28;20021;-60
2022/02/06 10:33:52;;;;;;;15.40;9.57;;;;;;;3.91;98.85;98622.84;5031725;28;20500;-58
2022/02/06 10:36:23;;;;;;;15.53;7.80;;;;;;;4.26;90.18;98610.41;5029333;28;20060;-58
2022/02/06 10:39:00;;;;;;;11.93;6.93;;;;;;;4.59;82.42;98608.03;5031691;28;20064;-59
2022/02/06 10:41:26;;;;;;;10.53;6.17;;;;;;;4.87;75.62;98617.47;5032422;28;20475;-58
2022/02/06 10:43:56;;;;;;;10.47;4.77;;;;;;;5.17;66.79;98606.53;5034250;28;20041;-59
2022/02/06 10:46:24;;;;;;;11.57;5.27;;;;;;;5.32;64.39;98598.94;5028124;28;20032;-59
2022/02/06 10:48:52;;;;;;;10.73;5.63;;;;;;;5.36;64.24;98602.31;5030865;28;20346;-59
2022/02/06 10:51:39;;;;;;;5.43;4.13;;;;;;;5.47;64.67;98590.47;5030702;28;20404;-58
2022/02/06 10:54:07;;;;;;;8.90;4.03;;;;;;;5.62;63.79;98589.63;5028843;28;20492;-60
2022/02/06 10:56:34;;;;;;;4.03;3.37;;;;;;;5.66;64.77;98586.22;5026075;28;20500;-61
2022/02/06 10:59:06;;;;;;;6.00;3.87;;;;;;;5.62;62.98;98582.84;5014683;28;20029;-59
2022/02/06 11:01:36;;;;;;;4.73;3.70;;;;;;;5.66;60.76;98586.22;5030156;28;20048;-60
2022/02/06 11:04:13;;;;;;;4.77;3.37;;;;;;;5.66;60.93;98587.06;5030756;28;20391;-59
2022/02/06 11:06:47;;;;;;;4.07;3.07;;;;;;;5.65;61.26;98584.53;5032041;28;20091;-59
2022/02/06 11:09:28;;;;;;;3.80;3.28;;;;;;;5.71;61.03;98584.53;5030774;28;20029;-60
2022/02/06 11:12:01;;;;;;;6.60;4.47;;;;;;;5.73;61.02;98581.13;5034302;28;20104;-60
2022/02/06 11:14:29;;;;;;;5.70;3.13;;;;;;;5.91;60.05;98582.84;5026414;28;20049;-59
2022/02/06 11:16:56;;;;;;;3.47;2.90;;;;;;;6.06;59.41;98574.34;5026718;28;20033;-59
2022/02/06 11:19:21;;;;;;;7.83;3.37;;;;;;;6.25;58.26;98570.91;5029835;28;20128;-55
2022/02/06 11:22:05;;;;;;;4.47;3.37;;;;;;;6.44;56.46;98570.00;5033656;28;20141;-57
2022/02/06 11:24:39;;;;;;;7.30;3.67;;;;;;;6.62;56.05;98558.91;5029119;28;20079;-56
2022/02/06 11:27:08;;;;;;;5.90;3.33;;;;;;;6.67;55.48;98541.88;5030352;28;20040;-56
2022/02/06 11:29:34;;;;;;;4.70;2.50;;;;;;;6.66;54.97;98537.66;5031708;28;20094;-57
2022/02/06 11:32:01;;;;;;;3.70;2.77;;;;;;;6.62;55.59;98528.34;5029800;28;20442;-57
2022/02/06 11:34:28;;;;;;;4.53;3.50;;;;;;;6.68;55.46;98511.31;5031550;28;20642;-58
2022/02/06 11:46:28;;;;;;;1.80;1.43;;;;;;;7.52;46.35;98465.63;5030366;28;20092;-54
2022/02/06 11:49:04;;;;;;;2.90;1.50;;;;;;;7.65;44.89;98469.75;4989372;28;1234134;-60
2022/02/06 11:51:30;;;;;;;1.77;1.43;;;;;;;7.65;44.38;98456.16;5031298;28;20068;-57
2022/02/06 11:53:55;;;;;;;2.50;1.40;;;;;;;7.57;44.51;98451.13;5027627;28;20045;-60
2022/02/06 11:56:31;;;;;;;2.67;1.37;;;;;;;7.53;45.15;98441.81;5032044;28;20075;-60
2022/02/06 11:59:23;;;;;;;7.30;1.87;;;;;;;7.56;45.01;98441.78;5018069;28;20029;-59
2022/02/06 12:01:48;;;;;;;1.77;1.23;;;;;;;7.48;44.98;98427.41;5026749;28;20587;-62
2022/02/06 12:04:23;;;;;;;3.20;2.50;;;;;;;7.65;44.46;98425.53;5030751;28;20092;-58
2022/02/06 12:06:48;;;;;;;4.43;2.45;;;;;;;7.72;44.38;98434.84;5034251;28;20060;-60
2022/02/06 12:09:24;;;;;;;2.23;1.70;;;;;;;7.73;43.40;98432.25;5034193;28;20034;-62
2022/02/06 12:12:04;;;;;;;4.07;1.90;;;;;;;7.74;44.03;98423.72;5028378;28;20732;-61
2022/02/06 12:14:36;;;;;;;2.83;1.87;;;;;;;7.72;45.06;98414.41;5032223;28;20414;-62
2022/02/06 12:17:19;;;;;;;2.27;1.57;;;;;;;7.81;44.54;98402.38;5030793;28;20709;-62
2022/02/06 12:20:14;;;;;;;3.97;2.07;;;;;;;7.84;43.39;98393.84;5030422;28;20903;-62
2022/02/06 12:22:45;;;;;;;7.10;4.47;;;;;;;7.67;44.08;98390.66;5029594;28;20563;-63
2022/02/06 12:25:36;;;;;;;5.70;3.77;;;;;;;7.77;43.95;98394.78;5031909;28;20044;-62
2022/02/06 12:28:10;;;;;;;4.43;2.53;;;;;;;7.73;42.97;98378.66;5032561;28;20033;-62
2022/02/06 12:30:39;;;;;;;2.95;2.13;;;;;;;8.00;43.45;98364.72;5028146;28;20041;-61
2022/02/06 12:33:22;;;;;;;6.37;2.40;;;;;;;8.33;42.44;98355.78;5028335;28;20037;-60
2022/02/06 12:38:31;;;;;;;2.57;1.80;;;;;;;8.94;41.66;98334.38;5026508;28;20052;-62
2022/02/06 12:40:57;;;;;;;4.67;2.00;;;;;;;9.05;40.42;98335.88;5027678;28;20100;-60
2022/02/06 12:43:28;;;;;;;2.70;1.70;;;;;;;9.17;41.01;98327.13;5027718;28;20044;-62
2022/02/06 12:45:55;;;;;;;2.90;1.80;;;;;;;9.36;40.37;98315.69;5031464;28;20060;-61
2022/02/06 12:48:21;;;;;;;3.53;2.10;;;;;;;9.58;39.95;98308.44;5007824;28;20046;-59
2022/02/06 12:50:47;;;;;;;1.90;1.70;;;;;;;9.76;39.62;98305.47;5032923;28;20768;-61
2022/02/06 12:53:20;;;;;;;2.27;2.07;;;;;;;9.68;39.35;98294.56;5028749;28;20021;-60
2022/02/06 12:55:46;;;;;;;4.40;2.37;;;;;;;9.57;39.92;98274.31;5029962;28;20065;-61
2022/02/06 12:58:13;;;;;;;2.57;2.00;;;;;;;9.71;39.25;98280.88;5028332;28;20064;-60
2022/02/06 13:00:45;;;;;;;3.20;2.30;;;;;;;9.62;38.51;98284.47;5028723;28;20025;-62
2022/02/06 13:03:26;;;;;;;3.67;2.10;;;;;;;9.21;39.73;98282.72;5009390;28;20032;-62
2022/02/06 13:05:54;;;;;;;3.43;2.80;;;;;;;9.28;40.52;98286.00;5032397;28;20060;-61
2022/02/06 13:08:20;;;;;;;3.75;2.00;;;;;;;9.29;40.31;98290.25;5026408;28;20041;-60
2022/02/06 13:10:55;;;;;;;3.43;2.13;;;;;;;9.29;40.39;98274.91;5028674;28;20185;-59
2022/02/06 13:13:25;;;;;;;;;;;;;;;9.19;40.93;98269.13;5029975;28;20682;-60
2022/02/06 13:16:00;;;;;;;4.90;2.92;;;;;;;8.97;41.58;98267.84;5029251;28;19956;-62
2022/02/06 13:19:18;;;;;;;3.40;2.65;;;;;;;8.94;41.24;98275.56;5028296;28;20134;-61
2022/02/06 13:21:43;;;;;;;4.43;2.33;;;;;;;9.06;41.21;98263.41;5026355;28;20049;-61
2022/02/06 13:24:25;;;;;;;2.77;2.33;;;;;;;9.03;41.55;98258.34;5029817;28;20442;-61
2022/02/06 13:27:21;;;;;;;5.33;3.47;;;;;;;8.97;42.22;98243.13;5009870;28;20491;-59
2022/02/06 13:32:34;;;;;;;6.00;3.40;;;;;;;8.89;42.29;98227.09;5030280;28;20091;-61
2022/02/06 13:37:58;;;;;;;4.27;3.27;;;;;;;8.93;42.71;98231.25;5026323;28;20058;-61
2022/02/06 13:40:29;;;;;;;4.45;2.75;;;;;;;8.97;41.35;98221.81;5027973;28;20117;-61
2022/02/06 13:43:14;;;;;;;4.57;3.20;;;;;;;9.06;41.70;98213.97;5029891;28;20080;-61
2022/02/06 13:45:42;;;;;;;6.05;3.05;;;;;;;8.90;41.61;98207.47;5011879;28;20683;-62
2022/02/06 13:48:11;;;;;;;3.47;2.92;;;;;;;8.93;41.68;98197.19;5027010;28;20045;-61
2022/02/06 13:50:44;;;;;;;6.80;3.43;;;;;;;8.94;41.95;98201.44;5031713;28;20280;-60
2022/02/06 13:53:20;;;;;;;6.97;3.80;;;;;;;8.72;40.76;98193.31;5032819;28;20040;-64
2022/02/06 13:55:47;;;;;;;5.80;4.10;;;;;;;8.70;41.09;98195.06;5026613;28;20636;-62
2022/02/06 13:58:15;;;;;;;6.70;3.90;;;;;;;8.59;41.11;98182.50;5029749;28;20030;-62
2022/02/06 14:00:59;;;;;;;4.27;3.67;;;;;;;8.47;41.21;98192.94;5006301;28;20394;-62
2022/02/06 14:03:42;;;;;;;6.77;2.97;;;;;;;8.60;39.78;98175.66;5025506;28;20458;-63
2022/02/06 14:06:09;;;;;;;2.60;2.40;;;;;;;8.53;39.00;98180.03;5025996;28;20068;-63
2022/02/06 14:08:37;;;;;;;8.40;5.00;;;;;;;8.45;40.84;98161.44;5027740;28;20519;-63